Time;durP1;ratioP1;P1;durP2;ratioP2;P2;SDS_P1;SDS_P2;PMS_P1;PMS_P2;Temp;Humidity;BMP_temperature;BMP_pressure;BME280_temperature;BME280_humidity;BME280_pressure;Samples;Min_cycle;Max_cycle;Signal;HPM_P1;HPM_P2
2023/03/23 00:01:26;;;;;;;4.70;1.77;;;;;;;;;;5006831;28;20027;-75
2023/03/23 00:03:53;;;;;;;6.37;1.70;;;;;;;;;;5006163;28;20129;-75
2023/03/23 00:06:20;;;;;;;4.13;1.80;;;;;;;;;;5003980;28;20108;-76
2023/03/23 00:08:52;;;;;;;3.87;1.63;;;;;;;;;;5007704;28;20030;-76
2023/03/23 00:11:22;;;;;;;6.68;1.73;;;;;;;;;;4997115;28;20431;-76
2023/03/23 00:13:52;;;;;;;4.73;1.43;;;;;;;;;;4997915;28;20080;-75
2023/03/23 00:16:28;;;;;;;3.50;1.57;;;;;;;;;;4996936;28;20117;-76
2023/03/23 00:18:55;;;;;;;2.90;1.77;;;;;;;;;;4997036;28;20068;-76
2023/03/23 00:21:25;;;;;;;3.73;1.40;;;;;;;;;;5002645;28;20090;-75
2023/03/23 00:23:51;;;;;;;2.77;1.40;;;;;;;;;;4994893;28;20037;-76
2023/03/23 00:26:17;;;;;;;3.73;1.33;;;;;;;;;;5003086;28;20037;-76
2023/03/23 00:28:46;;;;;;;6.77;1.50;;;;;;;;;;5007284;28;20030;-76
2023/03/23 00:31:14;;;;;;;2.50;1.30;;;;;;;;;;5016033;28;20037;-76
2023/03/23 00:33:41;;;;;;;3.03;1.20;;;;;;;;;;4985437;28;20081;-76
2023/03/23 00:36:11;;;;;;;2.53;1.00;;;;;;;;;;5009203;28;20022;-76
2023/03/23 00:38:41;;;;;;;1.77;1.13;;;;;;;;;;5006694;28;20048;-76
2023/03/23 00:41:07;;;;;;;3.10;1.60;;;;;;;;;;5000363;28;20115;-76
2023/03/23 00:43:37;;;;;;;2.37;1.20;;;;;;;;;;4986304;28;20109;-75
2023/03/23 00:46:08;;;;;;;1.90;1.37;;;;;;;;;;4997565;28;20036;-76
2023/03/23 00:48:35;;;;;;;4.00;1.47;;;;;;;;;;4983090;28;20113;-74
2023/03/23 00:51:05;;;;;;;7.80;1.70;;;;;;;;;;4993559;28;20034;-76
2023/03/23 00:53:31;;;;;;;5.23;1.23;;;;;;;;;;4995324;28;20053;-75
2023/03/23 00:55:57;;;;;;;2.80;1.43;;;;;;;;;;5007187;28;20026;-75
2023/03/23 00:58:25;;;;;;;3.47;1.10;;;;;;;;;;4991678;28;20088;-75
2023/03/23 01:00:54;;;;;;;2.00;1.30;;;;;;;;;;4991353;28;20034;-76
2023/03/23 01:03:20;;;;;;;2.97;1.33;;;;;;;;;;5007327;28;20041;-76
2023/03/23 01:05:51;;;;;;;2.63;1.30;;;;;;;;;;5007452;28;20358;-75
2023/03/23 01:08:18;;;;;;;2.87;1.30;;;;;;;;;;5007836;28;20481;-75
2023/03/23 01:10:47;;;;;;;2.20;1.53;;;;;;;;;;5007680;28;20114;-76
2023/03/23 01:13:13;;;;;;;2.10;1.30;;;;;;;;;;5005023;28;20034;-76
2023/03/23 01:15:40;;;;;;;2.30;1.40;;;;;;;;;;4992334;28;20076;-75
2023/03/23 01:18:08;;;;;;;1.70;1.27;;;;;;;;;;5009728;28;20032;-75
2023/03/23 01:20:35;;;;;;;3.00;1.40;;;;;;;;;;4994847;28;20091;-75
2023/03/23 01:23:01;;;;;;;2.67;1.23;;;;;;;;;;4994085;28;20041;-75
2023/03/23 01:25:29;;;;;;;4.50;1.47;;;;;;;;;;5009193;28;20061;-75
2023/03/23 01:27:55;;;;;;;2.47;1.30;;;;;;;;;;4994469;28;20099;-74
2023/03/23 01:30:21;;;;;;;5.83;1.50;;;;;;;;;;4994781;28;20033;-75
2023/03/23 01:32:47;;;;;;;1.67;1.30;;;;;;;;;;5011192;28;20030;-76
2023/03/23 01:35:14;;;;;;;3.23;1.40;;;;;;;;;;4993569;28;20033;-75
2023/03/23 01:37:42;;;;;;;4.47;1.40;;;;;;;;;;5008055;28;20034;-75
2023/03/23 01:40:09;;;;;;;3.70;1.30;;;;;;;;;;4995174;28;20038;-76
2023/03/23 01:42:38;;;;;;;2.87;1.30;;;;;;;;;;5012110;28;20609;-76
2023/03/23 01:45:20;;;;;;;3.67;1.80;;;;;;;;;;5011643;28;20021;-76
2023/03/23 01:47:52;;;;;;;3.13;1.23;;;;;;;;;;4997105;28;20030;-75
2023/03/23 01:50:18;;;;;;;3.78;2.13;;;;;;;;;;4994434;28;20030;-75
2023/03/23 01:52:44;;;;;;;2.90;1.60;;;;;;;;;;4994355;28;20057;-73
2023/03/23 01:55:11;;;;;;;2.27;1.63;;;;;;;;;;4994114;28;20134;-75
2023/03/23 01:57:37;;;;;;;4.60;1.70;;;;;;;;;;4994169;28;20018;-74
2023/03/23 02:00:10;;;;;;;3.47;2.07;;;;;;;;;;4994329;28;20084;-74
2023/03/23 02:02:38;;;;;;;4.87;2.10;;;;;;;;;;5008516;28;20029;-74
2023/03/23 02:05:08;;;;;;;3.23;1.67;;;;;;;;;;4993848;28;20125;-75
2023/03/23 02:07:37;;;;;;;3.00;1.67;;;;;;;;;;4990596;28;20035;-73
2023/03/23 02:10:04;;;;;;;3.47;2.20;;;;;;;;;;4998292;28;20018;-75
2023/03/23 02:12:30;;;;;;;3.47;1.77;;;;;;;;;;4993437;28;20045;-74
2023/03/23 02:14:56;;;;;;;4.07;1.97;;;;;;;;;;5008805;28;20044;-76
2023/03/23 02:17:34;;;;;;;6.10;2.03;;;;;;;;;;5011972;28;20053;-75
2023/03/23 02:20:19;;;;;;;4.23;1.90;;;;;;;;;;4993832;28;20044;-74
2023/03/23 02:22:48;;;;;;;2.77;2.00;;;;;;;;;;4994430;28;20034;-74
2023/03/23 02:25:26;;;;;;;3.83;1.80;;;;;;;;;;4993718;28;20045;-76
2023/03/23 02:28:11;;;;;;;2.47;2.00;;;;;;;;;;5009512;28;20514;-76
2023/03/23 02:30:44;;;;;;;3.87;2.03;;;;;;;;;;4992929;28;20040;-76
2023/03/23 02:33:10;;;;;;;3.47;1.80;;;;;;;;;;4993310;28;20128;-75
2023/03/23 02:35:38;;;;;;;3.60;1.93;;;;;;;;;;4993895;28;20117;-75
2023/03/23 02:38:11;;;;;;;4.90;1.87;;;;;;;;;;5008794;28;20026;-76
2023/03/23 02:40:40;;;;;;;4.97;2.27;;;;;;;;;;5011100;28;20030;-75
2023/03/23 02:43:08;;;;;;;4.17;2.60;;;;;;;;;;5008468;28;20045;-76
2023/03/23 02:45:35;;;;;;;5.03;2.50;;;;;;;;;;5011820;28;20088;-75
2023/03/23 02:48:03;;;;;;;5.60;2.37;;;;;;;;;;5011859;28;20041;-75
2023/03/23 02:50:32;;;;;;;3.97;2.30;;;;;;;;;;5007634;28;20436;-76
2023/03/23 02:52:59;;;;;;;5.27;2.70;;;;;;;;;;5018404;28;20033;-76
2023/03/23 02:55:29;;;;;;;2.83;2.10;;;;;;;;;;4998654;28;20022;-76
2023/03/23 02:58:01;;;;;;;3.10;2.20;;;;;;;;;;4995338;28;20109;-75
2023/03/23 03:00:27;;;;;;;5.18;2.28;;;;;;;;;;4998804;28;20046;-76
2023/03/23 03:02:54;;;;;;;3.67;2.00;;;;;;;;;;5002433;28;20037;-75
2023/03/23 03:05:44;;;;;;;4.30;2.00;;;;;;;;;;5008236;28;20418;-76
2023/03/23 03:08:17;;;;;;;3.23;1.60;;;;;;;;;;4993124;28;20036;-76
2023/03/23 03:10:43;;;;;;;3.30;2.00;;;;;;;;;;5014437;28;20022;-76
2023/03/23 03:13:25;;;;;;;4.47;1.93;;;;;;;;;;4997591;28;20026;-76
2023/03/23 03:16:01;;;;;;;3.80;1.77;;;;;;;;;;4993673;28;20052;-76
2023/03/23 03:18:35;;;;;;;5.03;1.63;;;;;;;;;;5000951;28;20084;-76
2023/03/23 03:21:05;;;;;;;4.80;2.07;;;;;;;;;;5007828;28;20331;-76
2023/03/23 03:23:32;;;;;;;5.40;1.70;;;;;;;;;;5021730;28;20443;-76
2023/03/23 03:25:58;;;;;;;5.43;1.87;;;;;;;;;;4998739;28;20041;-75
2023/03/23 03:28:26;;;;;;;2.90;1.83;;;;;;;;;;4981872;28;20026;-76
2023/03/23 03:30:57;;;;;;;2.30;1.40;;;;;;;;;;5013671;28;20030;-76
2023/03/23 03:33:26;;;;;;;3.40;1.50;;;;;;;;;;5021278;28;20026;-75
2023/03/23 03:35:53;;;;;;;2.37;1.80;;;;;;;;;;4993734;28;20023;-76
2023/03/23 03:38:19;;;;;;;2.90;1.70;;;;;;;;;;4990357;28;20030;-75
2023/03/23 03:40:45;;;;;;;3.90;1.50;;;;;;;;;;4988770;28;20084;-76
2023/03/23 03:43:11;;;;;;;5.50;1.57;;;;;;;;;;5006017;28;20461;-76
2023/03/23 03:45:37;;;;;;;2.37;1.47;;;;;;;;;;4997966;28;20033;-77
2023/03/23 03:48:03;;;;;;;4.10;1.60;;;;;;;;;;4985854;28;20049;-76
2023/03/23 03:50:30;;;;;;;2.97;1.70;;;;;;;;;;4998259;28;20030;-77
2023/03/23 03:53:01;;;;;;;3.40;1.70;;;;;;;;;;4997479;28;20429;-76
2023/03/23 03:55:35;;;;;;;4.30;1.57;;;;;;;;;;4999170;28;20030;-76
2023/03/23 03:58:04;;;;;;;2.70;1.53;;;;;;;;;;5005957;28;20085;-76
2023/03/23 04:00:30;;;;;;;1.73;1.50;;;;;;;;;;4998338;28;20095;-76
2023/03/23 04:02:56;;;;;;;2.17;1.57;;;;;;;;;;5006797;28;20022;-76
2023/03/23 04:05:23;;;;;;;4.33;1.90;;;;;;;;;;4999336;28;20156;-75
2023/03/23 04:08:01;;;;;;;3.87;1.27;;;;;;;;;;4993195;28;20026;-76
2023/03/23 04:10:27;;;;;;;3.07;1.50;;;;;;;;;;4998907;28;20412;-75
2023/03/23 04:12:53;;;;;;;3.03;1.83;;;;;;;;;;4985706;28;20036;-76
2023/03/23 04:15:22;;;;;;;1.70;1.20;;;;;;;;;;5011522;28;20026;-75
2023/03/23 04:17:48;;;;;;;3.20;1.67;;;;;;;;;;5001664;28;20401;-76
2023/03/23 04:20:19;;;;;;;3.47;1.73;;;;;;;;;;5013450;28;20342;-75
2023/03/23 04:22:48;;;;;;;3.95;1.45;;;;;;;;;;4996471;28;20030;-76
2023/03/23 04:25:15;;;;;;;2.23;1.50;;;;;;;;;;4992284;28;20026;-76
2023/03/23 04:27:45;;;;;;;4.53;1.70;;;;;;;;;;4999930;28;20369;-76
2023/03/23 04:30:12;;;;;;;2.67;1.70;;;;;;;;;;5012347;28;20442;-76
2023/03/23 04:32:41;;;;;;;3.67;1.80;;;;;;;;;;5015820;28;20033;-76
2023/03/23 04:35:08;;;;;;;2.80;1.47;;;;;;;;;;4997273;28;20022;-75
2023/03/23 04:37:34;;;;;;;2.30;1.50;;;;;;;;;;4990355;28;20036;-76
2023/03/23 04:40:00;;;;;;;2.70;1.30;;;;;;;;;;4998176;28;20037;-76
2023/03/23 04:42:31;;;;;;;3.53;1.93;;;;;;;;;;4998809;28;20018;-76
2023/03/23 04:44:57;;;;;;;3.60;1.80;;;;;;;;;;5008141;28;20447;-76
2023/03/23 04:47:24;;;;;;;3.17;1.67;;;;;;;;;;4993494;28;20060;-75
2023/03/23 04:49:51;;;;;;;5.20;1.87;;;;;;;;;;5002294;28;20026;-76
2023/03/23 04:52:17;;;;;;;2.47;1.80;;;;;;;;;;5018446;28;20044;-75
2023/03/23 04:54:44;;;;;;;3.93;2.20;;;;;;;;;;4999164;28;20037;-76
2023/03/23 04:57:12;;;;;;;5.17;2.03;;;;;;;;;;5000624;28;20022;-75
2023/03/23 04:59:38;;;;;;;6.10;1.87;;;;;;;;;;5030616;28;20029;-76
2023/03/23 05:02:04;;;;;;;2.23;1.83;;;;;;;;;;5012369;28;20084;-76
2023/03/23 05:04:31;;;;;;;3.90;1.83;;;;;;;;;;5010757;28;20026;-76
2023/03/23 05:06:57;;;;;;;2.77;1.53;;;;;;;;;;4988877;28;20026;-75
2023/03/23 05:09:23;;;;;;;5.50;1.90;;;;;;;;;;5008997;28;20026;-76
2023/03/23 05:11:51;;;;;;;2.80;1.87;;;;;;;;;;4998997;28;20048;-76
2023/03/23 05:14:17;;;;;;;2.87;2.00;;;;;;;;;;5000306;28;20355;-76
2023/03/23 05:16:48;;;;;;;4.67;2.00;;;;;;;;;;5004368;28;20033;-76
2023/03/23 05:19:14;;;;;;;3.83;2.13;;;;;;;;;;4993965;28;20112;-76
2023/03/23 05:21:40;;;;;;;3.67;1.93;;;;;;;;;;4987740;28;20057;-75
2023/03/23 05:24:06;;;;;;;7.60;2.27;;;;;;;;;;4998216;28;20058;-75
2023/03/23 05:26:35;;;;;;;3.73;2.30;;;;;;;;;;4999785;28;20036;-76
2023/03/23 05:29:00;;;;;;;3.17;1.90;;;;;;;;;;5008519;28;20021;-74
2023/03/23 05:31:26;;;;;;;4.77;2.10;;;;;;;;;;4998252;28;20022;-76
2023/03/23 05:33:53;;;;;;;5.23;2.47;;;;;;;;;;5003340;28;20539;-76
2023/03/23 05:36:22;;;;;;;4.10;2.07;;;;;;;;;;4999567;28;20025;-77
2023/03/23 05:38:49;;;;;;;3.17;2.10;;;;;;;;;;5000128;28;20018;-76
2023/03/23 05:41:15;;;;;;;2.40;1.90;;;;;;;;;;5008249;28;20030;-77
2023/03/23 05:43:41;;;;;;;2.53;1.53;;;;;;;;;;4995636;28;20065;-76
2023/03/23 05:46:08;;;;;;;2.80;1.77;;;;;;;;;;5001071;28;20057;-76
2023/03/23 05:48:34;;;;;;;4.77;2.33;;;;;;;;;;5000592;28;20064;-76
2023/03/23 05:51:00;;;;;;;4.20;1.60;;;;;;;;;;4998918;28;20030;-76
2023/03/23 05:53:26;;;;;;;3.83;2.07;;;;;;;;;;5015725;28;20026;-76
2023/03/23 05:55:52;;;;;;;4.90;1.80;;;;;;;;;;5008297;28;20036;-76
2023/03/23 05:58:19;;;;;;;2.37;1.60;;;;;;;;;;5009285;28;20029;-75
2023/03/23 06:00:47;;;;;;;4.63;1.73;;;;;;;;;;5000822;28;20026;-76
2023/03/23 06:03:15;;;;;;;2.97;1.77;;;;;;;;;;5006616;28;20056;-76
2023/03/23 06:05:45;;;;;;;3.77;1.80;;;;;;;;;;5009423;28;20124;-76
2023/03/23 06:08:12;;;;;;;2.93;1.87;;;;;;;;;;4998613;28;20030;-76
2023/03/23 06:10:38;;;;;;;4.73;1.50;;;;;;;;;;5011777;28;20041;-75
2023/03/23 06:13:05;;;;;;;4.33;1.50;;;;;;;;;;4994005;28;20054;-76
2023/03/23 06:15:32;;;;;;;3.37;1.50;;;;;;;;;;5003444;28;20026;-76
2023/03/23 06:18:01;;;;;;;2.77;1.40;;;;;;;;;;5002748;28;20032;-75
2023/03/23 06:20:27;;;;;;;3.53;1.37;;;;;;;;;;4998959;28;20026;-75
2023/03/23 06:22:53;;;;;;;5.03;1.70;;;;;;;;;;4987925;28;20089;-76
2023/03/23 06:25:19;;;;;;;3.17;1.40;;;;;;;;;;4998993;28;20030;-74
2023/03/23 06:27:46;;;;;;;5.67;1.90;;;;;;;;;;4994672;28;20084;-75
2023/03/23 06:30:14;;;;;;;5.53;1.63;;;;;;;;;;4996801;28;20489;-75
2023/03/23 06:32:40;;;;;;;5.70;2.20;;;;;;;;;;4996795;28;20030;-78
2023/03/23 06:35:09;;;;;;;7.47;2.17;;;;;;;;;;5008577;28;20466;-75
2023/03/23 06:37:37;;;;;;;4.47;1.53;;;;;;;;;;4995986;28;20377;-75
2023/03/23 06:40:06;;;;;;;5.07;1.60;;;;;;;;;;4992283;28;20026;-76
2023/03/23 06:42:33;;;;;;;2.67;1.10;;;;;;;;;;5001480;28;20025;-76
2023/03/23 06:45:02;;;;;;;7.03;1.60;;;;;;;;;;4998066;28;20030;-76
2023/03/23 06:47:29;;;;;;;4.77;1.10;;;;;;;;;;4997713;28;20030;-75
2023/03/23 06:49:55;;;;;;;4.90;1.10;;;;;;;;;;5015783;28;20456;-76
2023/03/23 06:52:22;;;;;;;4.83;1.50;;;;;;;;;;4990811;28;20037;-76
2023/03/23 06:54:49;;;;;;;6.13;1.80;;;;;;;;;;4989197;28;20040;-76
2023/03/23 06:57:15;;;;;;;5.80;1.70;;;;;;;;;;4992341;28;20095;-76
2023/03/23 06:59:42;;;;;;;4.30;1.30;;;;;;;;;;4991980;28;20435;-75
2023/03/23 07:02:09;;;;;;;4.43;1.20;;;;;;;;;;5009695;28;20080;-76
2023/03/23 07:04:38;;;;;;;4.40;1.30;;;;;;;;;;5003589;28;20466;-75
2023/03/23 07:07:04;;;;;;;2.97;1.13;;;;;;;;;;5009857;28;20044;-76
2023/03/23 07:09:31;;;;;;;4.17;1.20;;;;;;;;;;5009734;28;20037;-76
2023/03/23 07:11:57;;;;;;;3.73;1.30;;;;;;;;;;5009288;28;20037;-76
2023/03/23 07:14:23;;;;;;;3.10;1.50;;;;;;;;;;5009972;28;20525;-76
2023/03/23 07:16:51;;;;;;;2.20;1.37;;;;;;;;;;5008649;28;20121;-76
2023/03/23 07:19:17;;;;;;;5.37;1.87;;;;;;;;;;4989764;28;20022;-75
2023/03/23 07:21:43;;;;;;;4.53;1.40;;;;;;;;;;4992452;28;20045;-77
2023/03/23 07:24:13;;;;;;;4.63;1.63;;;;;;;;;;4994635;28;20038;-77
2023/03/23 07:26:39;;;;;;;5.43;2.00;;;;;;;;;;4992412;28;20042;-76
2023/03/23 07:29:06;;;;;;;4.50;1.20;;;;;;;;;;5009595;28;20037;-76
2023/03/23 07:31:32;;;;;;;2.80;1.00;;;;;;;;;;4992403;28;21600;-77
2023/03/23 07:34:00;;;;;;;1.50;1.10;;;;;;;;;;4990511;28;20137;-75
2023/03/23 07:36:27;;;;;;;2.87;1.50;;;;;;;;;;4997430;28;20124;-77
2023/03/23 07:38:53;;;;;;;5.10;1.47;;;;;;;;;;4992496;28;20474;-78
2023/03/23 07:41:19;;;;;;;3.80;1.30;;;;;;;;;;4991724;28;20084;-76
2023/03/23 07:43:45;;;;;;;3.90;1.73;;;;;;;;;;5007991;28;20131;-76
2023/03/23 07:46:12;;;;;;;3.03;1.40;;;;;;;;;;5009100;28;20030;-76
2023/03/23 07:48:38;;;;;;;3.33;1.37;;;;;;;;;;4986516;28;20042;-76
2023/03/23 07:51:05;;;;;;;3.13;1.43;;;;;;;;;;4991592;28;20026;-77
2023/03/23 07:53:31;;;;;;;3.17;1.30;;;;;;;;;;5008933;28;20069;-76
2023/03/23 07:56:01;;;;;;;7.70;1.50;;;;;;;;;;4994325;28;20077;-76
2023/03/23 07:58:28;;;;;;;5.70;1.37;;;;;;;;;;5008766;28;20061;-77
2023/03/23 08:00:56;;;;;;;4.93;1.73;;;;;;;;;;4987004;28;20108;-77
2023/03/23 08:03:22;;;;;;;6.13;1.60;;;;;;;;;;4994299;28;20477;-76
2023/03/23 08:05:51;;;;;;;2.83;1.10;;;;;;;;;;4991451;28;20042;-75
2023/03/23 08:08:18;;;;;;;2.70;0.73;;;;;;;;;;5008221;28;20718;-76
2023/03/23 08:10:44;;;;;;;3.73;1.57;;;;;;;;;;4995179;28;20034;-75
2023/03/23 08:13:10;;;;;;;4.37;1.20;;;;;;;;;;4994443;28;20904;-76
2023/03/23 08:15:37;;;;;;;3.97;1.77;;;;;;;;;;5011163;28;20021;-77
2023/03/23 08:18:03;;;;;;;2.40;1.23;;;;;;;;;;5009666;28;20029;-76
2023/03/23 08:20:29;;;;;;;3.13;1.40;;;;;;;;;;4992334;28;20478;-76
2023/03/23 08:22:56;;;;;;;4.60;1.13;;;;;;;;;;5009890;28;20029;-77
2023/03/23 08:25:24;;;;;;;2.10;1.00;;;;;;;;;;4994248;28;21756;-76
2023/03/23 08:27:50;;;;;;;4.73;1.60;;;;;;;;;;5014682;28;20030;-76
2023/03/23 08:30:19;;;;;;;4.73;1.23;;;;;;;;;;4997258;28;20026;-75
2023/03/23 08:32:45;;;;;;;3.80;1.30;;;;;;;;;;5010440;28;20035;-75
2023/03/23 08:35:12;;;;;;;3.50;1.40;;;;;;;;;;4995468;28;20080;-75
2023/03/23 08:37:38;;;;;;;5.85;1.48;;;;;;;;;;5013424;28;20030;-75
2023/03/23 08:40:08;;;;;;;5.53;1.30;;;;;;;;;;5008587;28;20029;-77
2023/03/23 08:42:34;;;;;;;5.97;1.30;;;;;;;;;;5012067;28;20049;-75
2023/03/23 08:45:03;;;;;;;8.15;1.40;;;;;;;;;;4995638;28;20038;-76
2023/03/23 08:47:29;;;;;;;4.50;1.40;;;;;;;;;;5013382;28;20038;-76
2023/03/23 08:49:55;;;;;;;2.53;1.20;;;;;;;;;;5012454;28;20793;-75
2023/03/23 08:52:24;;;;;;;7.95;2.28;;;;;;;;;;5012134;28;20457;-76
2023/03/23 08:54:50;;;;;;;5.68;1.35;;;;;;;;;;5006998;28;20032;-75
2023/03/23 08:57:18;;;;;;;6.38;1.90;;;;;;;;;;5013431;28;20102;-76
2023/03/23 08:59:44;;;;;;;3.90;1.50;;;;;;;;;;5000693;28;20434;-77
2023/03/23 09:02:13;;;;;;;5.80;1.38;;;;;;;;;;5000753;28;20046;-76
2023/03/23 09:04:42;;;;;;;5.75;1.27;;;;;;;;;;5008866;28;20362;-77
2023/03/23 09:07:10;;;;;;;5.85;1.42;;;;;;;;;;5003446;28;20088;-77
2023/03/23 09:09:38;;;;;;;3.90;1.17;;;;;;;;;;4984222;28;20030;-77
2023/03/23 09:12:06;;;;;;;2.45;1.33;;;;;;;;;;5001255;28;20410;-76
2023/03/23 09:14:35;;;;;;;4.93;1.10;;;;;;;;;;5002253;28;20026;-77
2023/03/23 09:17:02;;;;;;;1.95;1.02;;;;;;;;;;5001151;28;20123;-76
2023/03/23 09:19:28;;;;;;;3.72;1.02;;;;;;;;;;5000568;28;20022;-77
2023/03/23 09:21:55;;;;;;;6.53;1.67;;;;;;;;;;5004069;28;20032;-77
2023/03/23 09:24:23;;;;;;;6.38;1.38;;;;;;;;;;5017249;28;20072;-77
2023/03/23 09:26:49;;;;;;;4.70;1.20;;;;;;;;;;5000681;28;20033;-77
2023/03/23 09:29:15;;;;;;;6.40;1.27;;;;;;;;;;5004969;28;20096;-76
2023/03/23 09:31:42;;;;;;;3.63;1.27;;;;;;;;;;5002707;28;20059;-76
2023/03/23 09:34:09;;;;;;;4.05;1.17;;;;;;;;;;5000999;28;20033;-75
2023/03/23 09:36:36;;;;;;;4.97;1.20;;;;;;;;;;4996509;28;20091;-77
2023/03/23 09:39:07;;;;;;;4.53;1.35;;;;;;;;;;4999224;28;20034;-76
2023/03/23 09:41:34;;;;;;;5.53;1.40;;;;;;;;;;5019312;28;20022;-76
2023/03/23 09:44:04;;;;;;;6.10;1.52;;;;;;;;;;5000589;28;20500;-77
2023/03/23 09:46:50;;;;;;;7.50;2.13;;;;;;;;;;4991786;28;20092;-76
2023/03/23 09:49:36;;;;;;;10.05;1.63;;;;;;;;;;4999149;28;20057;-77
2023/03/23 09:52:03;;;;;;;6.50;1.60;;;;;;;;;;4986505;28;20057;-76
2023/03/23 09:54:36;;;;;;;7.22;1.70;;;;;;;;;;5009083;28;20040;-77
2023/03/23 09:57:02;;;;;;;7.93;1.92;;;;;;;;;;5013328;28;20068;-77
2023/03/23 09:59:31;;;;;;;7.82;1.65;;;;;;;;;;5000531;28;20037;-77
2023/03/23 10:02:13;;;;;;;3.78;1.33;;;;;;;;;;5007541;28;20015;-77
2023/03/23 10:04:50;;;;;;;7.15;1.33;;;;;;;;;;4983208;28;20031;-76
2023/03/23 10:07:26;;;;;;;4.97;1.88;;;;;;;;;;4995560;28;20060;-77
2023/03/23 10:09:57;;;;;;;5.15;1.50;;;;;;;;;;5012139;28;20018;-77
2023/03/23 10:12:26;;;;;;;4.82;1.20;;;;;;;;;;5006351;28;20026;-77
2023/03/23 10:15:00;;;;;;;3.95;1.30;;;;;;;;;;5001124;28;20164;-77
2023/03/23 10:17:34;;;;;;;3.20;1.15;;;;;;;;;;5020637;28;20088;-76
2023/03/23 10:20:17;;;;;;;5.90;1.70;;;;;;;;;;5012983;28;20026;-76
2023/03/23 10:22:49;;;;;;;6.47;1.10;;;;;;;;;;4996574;28;20026;-76
2023/03/23 10:25:19;;;;;;;5.20;1.37;;;;;;;;;;4998650;28;20524;-76
2023/03/23 10:27:45;;;;;;;3.90;1.33;;;;;;;;;;5014542;28;20435;-77
2023/03/23 10:30:11;;;;;;;3.20;1.10;;;;;;;;;;4997542;28;20022;-77
2023/03/23 10:32:51;;;;;;;2.85;0.90;;;;;;;;;;5012429;28;20379;-76
2023/03/23 10:35:20;;;;;;;8.00;1.97;;;;;;;;;;5004103;28;20053;-77
2023/03/23 10:37:57;;;;;;;3.47;0.97;;;;;;;;;;4999881;28;20494;-77
2023/03/23 10:40:26;;;;;;;4.27;1.40;;;;;;;;;;4999347;28;20025;-76
2023/03/23 10:42:54;;;;;;;6.17;1.73;;;;;;;;;;5012484;28;20021;-76
2023/03/23 10:45:21;;;;;;;2.03;0.80;;;;;;;;;;5013019;28;20038;-77
2023/03/23 10:47:50;;;;;;;4.03;1.10;;;;;;;;;;5000366;28;20062;-77
2023/03/23 10:50:18;;;;;;;3.33;1.70;;;;;;;;;;5000700;28;20390;-77
2023/03/23 10:52:45;;;;;;;2.92;0.80;;;;;;;;;;5010619;28;20034;-76
2023/03/23 10:55:15;;;;;;;2.33;0.90;;;;;;;;;;4990830;28;20026;-76
2023/03/23 10:57:43;;;;;;;1.75;0.80;;;;;;;;;;5014182;28;20022;-76
2023/03/23 11:00:16;;;;;;;1.40;0.70;;;;;;;;;;4987958;28;20072;-76
2023/03/23 11:02:42;;;;;;;;;;;;;;;;;;5008645;28;20430;-76
2023/03/23 11:05:16;;;;;;;1.17;0.50;;;;;;;;;;5008761;28;19905;-76
2023/03/23 11:07:44;;;;;;;2.23;0.87;;;;;;;;;;5013243;28;20022;-76
2023/03/23 11:10:21;;;;;;;3.53;1.13;;;;;;;;;;4999095;28;20116;-76
2023/03/23 11:12:47;;;;;;;1.83;0.70;;;;;;;;;;4992113;28;20054;-75
2023/03/23 11:15:25;;;;;;;1.10;0.50;;;;;;;;;;5006020;28;20041;-76
2023/03/23 11:17:58;;;;;;;3.83;0.65;;;;;;;;;;4994865;28;20073;-76
2023/03/23 11:20:28;;;;;;;4.00;0.90;;;;;;;;;;5010235;28;20473;-76
2023/03/23 11:22:59;;;;;;;1.92;1.17;;;;;;;;;;4996561;28;20022;-76
2023/03/23 11:25:26;;;;;;;3.53;0.70;;;;;;;;;;5006681;28;20363;-76
2023/03/23 11:27:52;;;;;;;3.53;0.82;;;;;;;;;;4998892;28;20030;-76
2023/03/23 11:30:27;;;;;;;2.08;0.77;;;;;;;;;;5015996;28;20025;-76
2023/03/23 11:32:54;;;;;;;3.10;0.80;;;;;;;;;;4993493;28;20025;-76
2023/03/23 11:35:22;;;;;;;2.92;1.00;;;;;;;;;;5005302;28;20125;-76
2023/03/23 11:37:53;;;;;;;2.50;0.90;;;;;;;;;;4990824;28;20041;-76
2023/03/23 11:40:21;;;;;;;2.53;0.77;;;;;;;;;;5009119;28;20036;-76
2023/03/23 11:42:57;;;;;;;3.35;0.80;;;;;;;;;;4998359;28;20022;-75
2023/03/23 11:45:33;;;;;;;2.55;1.10;;;;;;;;;;4986732;28;20025;-76
2023/03/23 11:48:17;;;;;;;1.67;0.52;;;;;;;;;;4998416;28;20485;-76
2023/03/23 11:50:50;;;;;;;1.30;0.60;;;;;;;;;;5007356;28;20032;-75
2023/03/23 11:53:25;;;;;;;2.80;1.13;;;;;;;;;;4987760;28;20031;-75
2023/03/23 11:55:55;;;;;;;2.13;0.60;;;;;;;;;;4998079;28;20049;-76
2023/03/23 11:58:22;;;;;;;3.67;0.50;;;;;;;;;;5001913;28;20034;-75
2023/03/23 12:00:58;;;;;;;7.97;1.00;;;;;;;;;;5011549;28;20105;-75
2023/03/23 12:03:35;;;;;;;5.20;0.60;;;;;;;;;;4995510;28;20033;-76
2023/03/23 12:06:11;;;;;;;12.37;1.20;;;;;;;;;;5010767;28;20060;-76
2023/03/23 12:08:37;;;;;;;3.30;0.70;;;;;;;;;;5002807;28;20026;-76
2023/03/23 12:11:19;;;;;;;2.42;0.60;;;;;;;;;;5002085;28;20040;-76
2023/03/23 12:13:52;;;;;;;2.58;0.50;;;;;;;;;;4996500;28;20084;-77
2023/03/23 12:16:27;;;;;;;2.55;0.77;;;;;;;;;;5000564;28;20034;-76
2023/03/23 12:18:59;;;;;;;1.80;0.88;;;;;;;;;;5008647;28;20010;-76
2023/03/23 12:21:30;;;;;;;1.88;0.60;;;;;;;;;;4997561;28;20026;-76
2023/03/23 12:23:56;;;;;;;1.65;0.60;;;;;;;;;;4997573;28;20029;-77
2023/03/23 12:26:26;;;;;;;2.25;0.70;;;;;;;;;;4990075;28;20029;-76
2023/03/23 12:28:52;;;;;;;4.03;0.80;;;;;;;;;;5004487;28;20029;-76
2023/03/23 12:31:47;;;;;;;2.17;0.50;;;;;;;;;;4989695;28;20036;-76
2023/03/23 12:34:31;;;;;;;1.75;0.50;;;;;;;;;;4928891;28;20040;-75
2023/03/23 12:37:29;;;;;;;1.98;0.77;;;;;;;;;;5022649;28;20026;-76
2023/03/23 12:40:06;;;;;;;5.22;0.70;;;;;;;;;;4984576;28;20089;-76
2023/03/23 12:42:38;;;;;;;1.98;0.77;;;;;;;;;;4989794;28;20034;-77
2023/03/23 12:45:12;;;;;;;2.25;0.93;;;;;;;;;;4994290;28;20080;-75
2023/03/23 12:47:37;;;;;;;1.88;0.90;;;;;;;;;;5007713;28;20030;-75
2023/03/23 12:50:28;;;;;;;2.35;0.73;;;;;;;;;;5001967;28;20506;-75
2023/03/23 12:53:00;;;;;;;3.22;1.00;;;;;;;;;;4982085;28;21552;-76
2023/03/23 12:55:30;;;;;;;2.78;0.88;;;;;;;;;;5006733;28;20069;-76
2023/03/23 12:57:58;;;;;;;3.85;0.98;;;;;;;;;;5007914;28;20057;-75
2023/03/23 13:00:27;;;;;;;3.30;0.90;;;;;;;;;;5008318;28;20022;-76
2023/03/23 13:02:56;;;;;;;4.88;0.80;;;;;;;;;;4992331;28;20467;-74
2023/03/23 13:05:25;;;;;;;3.20;1.15;;;;;;;;;;5006225;28;20122;-75
2023/03/23 13:07:59;;;;;;;3.58;0.77;;;;;;;;;;5008959;28;20079;-75
2023/03/23 13:10:28;;;;;;;3.30;0.90;;;;;;;;;;5007759;28;20033;-75
2023/03/23 13:12:55;;;;;;;4.18;0.90;;;;;;;;;;4995424;28;20033;-75
2023/03/23 13:15:39;;;;;;;5.85;0.93;;;;;;;;;;4994988;28;20029;-74
2023/03/23 13:18:05;;;;;;;1.48;0.90;;;;;;;;;;5009408;28;20451;-76
2023/03/23 13:20:41;;;;;;;3.83;0.80;;;;;;;;;;4994938;28;20117;-76
2023/03/23 13:23:11;;;;;;;3.47;0.90;;;;;;;;;;4994289;28;20144;-75
2023/03/23 13:25:43;;;;;;;3.92;1.40;;;;;;;;;;5011883;28;20036;-76
2023/03/23 13:28:20;;;;;;;5.18;1.10;;;;;;;;;;4997659;28;20109;-76
2023/03/23 13:30:54;;;;;;;2.80;1.27;;;;;;;;;;5011692;28;20022;-75
2023/03/23 13:33:21;;;;;;;4.28;1.52;;;;;;;;;;4995113;28;20382;-76
2023/03/23 13:35:49;;;;;;;4.97;2.00;;;;;;;;;;5012151;28;20030;-76
2023/03/23 13:38:25;;;;;;;6.05;0.98;;;;;;;;;;4991591;28;20054;-76
2023/03/23 13:40:53;;;;;;;5.30;1.10;;;;;;;;;;5009656;28;20030;-75
2023/03/23 13:43:32;;;;;;;2.00;0.93;;;;;;;;;;5009711;28;20029;-75
2023/03/23 13:46:17;;;;;;;2.00;0.70;;;;;;;;;;5012007;28;20045;-76
2023/03/23 13:48:51;;;;;;;2.37;0.70;;;;;;;;;;4993384;28;20029;-76
2023/03/23 13:51:32;;;;;;;1.00;0.60;;;;;;;;;;5011778;28;20034;-76
2023/03/23 13:54:26;;;;;;;2.27;0.60;;;;;;;;;;4994096;28;20033;-76
2023/03/23 13:56:55;;;;;;;4.57;0.80;;;;;;;;;;4993864;28;20111;-76
2023/03/23 13:59:28;;;;;;;4.20;0.90;;;;;;;;;;4991900;28;20033;-75
2023/03/23 14:02:14;;;;;;;2.75;0.60;;;;;;;;;;4991120;28;20343;-76
2023/03/23 14:04:40;;;;;;;2.25;0.77;;;;;;;;;;4996935;28;20402;-76
2023/03/23 14:07:10;;;;;;;3.10;0.70;;;;;;;;;;5010256;28;20041;-76
2023/03/23 14:09:42;;;;;;;3.55;0.60;;;;;;;;;;4994038;28;20038;-76
2023/03/23 14:12:34;;;;;;;4.45;1.45;;;;;;;;;;4994117;28;20176;-75
2023/03/23 14:15:04;;;;;;;2.78;0.70;;;;;;;;;;4988575;28;20136;-76
2023/03/23 14:17:31;;;;;;;2.30;1.10;;;;;;;;;;4992908;28;20102;-76
2023/03/23 14:19:58;;;;;;;1.83;0.63;;;;;;;;;;5009478;28;20117;-76
2023/03/23 14:22:24;;;;;;;4.20;1.30;;;;;;;;;;4993033;28;20521;-76
2023/03/23 14:24:53;;;;;;;5.40;1.35;;;;;;;;;;4992048;28;20116;-75
2023/03/23 14:27:23;;;;;;;3.90;1.15;;;;;;;;;;4993704;28;20887;-77
2023/03/23 14:30:04;;;;;;;4.45;0.98;;;;;;;;;;5010566;28;20483;-75
2023/03/23 14:32:32;;;;;;;6.57;1.60;;;;;;;;;;5010041;28;20057;-76
2023/03/23 14:34:58;;;;;;;3.40;1.30;;;;;;;;;;5009001;28;20367;-76
2023/03/23 14:37:24;;;;;;;4.00;1.48;;;;;;;;;;4993034;28;20099;-75
2023/03/23 14:39:52;;;;;;;4.95;1.20;;;;;;;;;;4993763;28;20048;-75
2023/03/23 14:42:23;;;;;;;2.10;0.90;;;;;;;;;;5010111;28;20030;-75
2023/03/23 14:44:50;;;;;;;2.38;0.70;;;;;;;;;;5010416;28;20053;-76
2023/03/23 14:47:24;;;;;;;3.72;1.13;;;;;;;;;;4992939;28;20611;-76
2023/03/23 14:49:58;;;;;;;8.93;1.58;;;;;;;;;;4992426;28;20041;-75
2023/03/23 14:52:25;;;;;;;2.97;1.00;;;;;;;;;;5010209;28;20034;-76
2023/03/23 14:54:51;;;;;;;4.53;1.30;;;;;;;;;;5008807;28;20049;-76
2023/03/23 14:57:17;;;;;;;2.40;1.07;;;;;;;;;;5011483;28;20466;-76